Alief, Texas
Current Conditions -  °F | °C
As of 4:53 AM on Wednesday 26 Nov 2014 (Local Time) from KSGR Reporting Station
Clear Clear  
Wind Chill:   Ceiling: Unl
Heat Index:   Visibility: 10mi
Dew Point:   Wind: 5mph
Humidity: 80%   Direction: 200°SSW
Pressure: 30.21"   Gusts: NA
Location:  29.71°N, 95.6°W
Report Text: KSGR 261053Z AUTO 20004KT 10SM CLR 07/04 A3021 RMK AO2 SLP231 T00720039
Loading
Personal Weather Stations






























Interactive Weather Map New forecast layout! Learn more

10-Day Weather Forecast

Advertisements
Track Severe Weather on mobile